createdAt,value
2023-03-04T00:02:10.034Z,101658.34
2023-03-04T00:04:36.529Z,101657.75
2023-03-04T00:07:03.640Z,101661.09
2023-03-04T00:09:31.688Z,101666.66
2023-03-04T00:11:58.870Z,101662.03
2023-03-04T00:14:26.645Z,101648.03
2023-03-04T00:16:54.299Z,101648.28
2023-03-04T00:19:21.258Z,101647.09
2023-03-04T00:21:47.760Z,101645.91
2023-03-04T00:24:14.526Z,101648.59
2023-03-04T00:26:42.510Z,101638.06
2023-03-04T00:29:09.191Z,101639.63
2023-03-04T00:31:35.794Z,101645.47
2023-03-04T00:34:02.264Z,101646.88
2023-03-04T00:36:29.392Z,101639.78
2023-03-04T00:38:55.885Z,101658.50
2023-03-04T00:41:22.835Z,101652.97
2023-03-04T00:43:49.982Z,101652.47
2023-03-04T00:46:17.070Z,101659.09
2023-03-04T00:48:44.866Z,101649.56
2023-03-04T00:51:11.447Z,101652.91
2023-03-04T00:53:38.056Z,101645.69
2023-03-04T00:56:04.754Z,101633.72
2023-03-04T00:58:31.740Z,101641.88
2023-03-04T01:00:58.266Z,101631.41
2023-03-04T01:03:26.920Z,101643.84
2023-03-04T01:05:53.390Z,101643.66
2023-03-04T01:08:19.872Z,101632.09
2023-03-04T01:10:46.342Z,101636.75
2023-03-04T01:13:12.817Z,101638.97
2023-03-04T01:15:39.435Z,101630.59
2023-03-04T01:18:05.934Z,101615.81
2023-03-04T01:20:32.419Z,101613.56
2023-03-04T01:22:58.894Z,101621.13
2023-03-04T01:25:25.550Z,101617.69
2023-03-04T01:27:52.007Z,101615.56
2023-03-04T01:30:18.516Z,101614.81
2023-03-04T01:32:44.989Z,101612.97
2023-03-04T01:35:11.658Z,101605.41
2023-03-04T01:37:38.290Z,101608.84
2023-03-04T01:40:05.822Z,101612.47
2023-03-04T01:42:34.948Z,101591.03
2023-03-04T01:45:01.765Z,101604.56
2023-03-04T01:47:29.973Z,101586.25
2023-03-04T01:49:57.590Z,101586.06
2023-03-04T01:52:24.674Z,101586.13
2023-03-04T01:54:51.168Z,101585.50
2023-03-04T01:57:26.750Z,101579.03
2023-03-04T02:00:18.596Z,101579.19
2023-03-04T02:02:45.686Z,101561.38
2023-03-04T02:05:12.598Z,101561.47
2023-03-04T02:07:39.100Z,101560.22
2023-03-04T02:10:06.053Z,101553.78
2023-03-04T02:12:32.860Z,101551.16
2023-03-04T02:14:59.400Z,101558.59
2023-03-04T02:17:27.007Z,101557.25
2023-03-04T02:19:59.987Z,101540.22
2023-03-04T02:22:27.112Z,101543.97
2023-03-04T02:24:59.455Z,101542.38
2023-03-04T02:27:27.282Z,101551.13
2023-03-04T02:29:53.817Z,101551.88
2023-03-04T02:32:20.382Z,101541.44
2023-03-04T02:34:49.405Z,101539.63
2023-03-04T02:37:17.464Z,101529.38
2023-03-04T02:39:45.760Z,101540.25
2023-03-04T02:42:12.743Z,101538.44
2023-03-04T02:44:43.779Z,101532.66
2023-03-04T02:47:11.744Z,101539.69
2023-03-04T02:49:40.008Z,101539.09
2023-03-04T02:52:09.439Z,101517.81
2023-03-04T02:54:37.340Z,101537.03
2023-03-04T02:57:06.963Z,101529.31
2023-03-04T02:59:33.950Z,101540.13
2023-03-04T03:02:00.489Z,101527.94
2023-03-04T03:04:27.157Z,101520.56
2023-03-04T03:06:53.692Z,101521.84
2023-03-04T03:09:20.270Z,101512.78
2023-03-04T03:11:46.927Z,101513.97
2023-03-04T03:14:13.429Z,101502.09
2023-03-04T03:16:39.899Z,101506.75
2023-03-04T03:19:06.388Z,101505.38
2023-03-04T03:21:32.839Z,101511.28
2023-03-04T03:23:59.355Z,101516.09
2023-03-04T03:26:25.963Z,101496.94
2023-03-04T03:28:52.434Z,101511.72
2023-03-04T03:31:20.063Z,101506.03
2023-03-04T03:33:46.779Z,101503.22
2023-03-04T03:36:13.345Z,101496.53
2023-03-04T03:38:39.849Z,101497.19
2023-03-04T03:41:06.310Z,101503.09
2023-03-04T03:43:32.799Z,101503.09
2023-03-04T03:45:59.326Z,101499.44
2023-03-04T03:48:25.795Z,101515.34
2023-03-04T03:50:52.270Z,101512.78
2023-03-04T03:53:18.748Z,101522.75
2023-03-04T03:55:45.227Z,101521.44
2023-03-04T03:58:11.756Z,101508.88
2023-03-04T04:00:38.243Z,101516.97
2023-03-04T04:03:04.757Z,101518.00
2023-03-04T04:05:31.376Z,101511.31
2023-03-04T04:07:57.819Z,101508.56
2023-03-04T04:10:24.318Z,101501.41
2023-03-04T04:12:50.799Z,101508.16
2023-03-04T04:15:17.249Z,101507.91
2023-03-04T04:17:43.722Z,101501.50
2023-03-04T04:20:10.761Z,101498.97
2023-03-04T04:22:37.213Z,101498.94
2023-03-04T04:25:05.111Z,101496.72
2023-03-04T04:27:31.596Z,101486.91
2023-03-04T04:29:58.104Z,101491.31
2023-03-04T04:32:24.604Z,101500.81
2023-03-04T04:34:51.114Z,101489.59
2023-03-04T04:37:17.577Z,101502.91
2023-03-04T04:39:44.076Z,101495.56
2023-03-04T04:42:11.499Z,101496.97
2023-03-04T04:44:39.102Z,101496.75
2023-03-04T04:47:09.611Z,101493.72
2023-03-04T04:49:36.081Z,101497.31
2023-03-04T04:52:02.762Z,101503.25
2023-03-04T04:54:29.252Z,101495.09
2023-03-04T04:56:55.753Z,101496.50
2023-03-04T04:59:23.383Z,101502.59
2023-03-04T05:01:49.892Z,101504.84
2023-03-04T05:04:16.386Z,101499.28
2023-03-04T05:06:43.130Z,101499.91
2023-03-04T05:09:09.667Z,101507.06
2023-03-04T05:11:36.145Z,101493.31
2023-03-04T05:14:02.614Z,101505.31
2023-03-04T05:16:29.083Z,101489.50
2023-03-04T05:18:55.531Z,101503.44
2023-03-04T05:21:22.037Z,101500.19
2023-03-04T05:23:48.644Z,101498.91
2023-03-04T05:26:16.769Z,101506.38
2023-03-04T05:28:43.468Z,101503.69
2023-03-04T05:31:10.757Z,101506.72
2023-03-04T05:33:37.499Z,101501.41
2023-03-04T05:36:05.511Z,101503.47
2023-03-04T05:38:32.296Z,101511.31
2023-03-04T05:41:04.097Z,101516.13
2023-03-04T05:43:31.589Z,101510.53
2023-03-04T05:45:58.169Z,101516.66
2023-03-04T05:48:24.615Z,101515.06
2023-03-04T05:50:55.558Z,101511.91
2023-03-04T05:53:22.857Z,101509.66
2023-03-04T05:55:49.789Z,101499.84
2023-03-04T05:58:16.984Z,101508.03
2023-03-04T06:00:43.694Z,101509.16
2023-03-04T06:03:18.710Z,101511.13
2023-03-04T06:05:45.260Z,101508.72
2023-03-04T06:08:12.708Z,101513.59
2023-03-04T06:10:40.340Z,101516.25
2023-03-04T06:13:07.258Z,101518.00
2023-03-04T06:15:34.211Z,101518.66
2023-03-04T06:18:00.680Z,101517.38
2023-03-04T06:20:27.220Z,101513.53
2023-03-04T06:22:53.700Z,101520.69
2023-03-04T06:25:20.629Z,101515.94
2023-03-04T06:27:48.018Z,101516.03
2023-03-04T06:30:16.291Z,101517.50
2023-03-04T06:32:44.404Z,101516.94
2023-03-04T06:35:12.037Z,101525.28
2023-03-04T06:37:38.638Z,101524.69
2023-03-04T06:40:07.675Z,101533.66
2023-03-04T06:42:35.265Z,101521.63
2023-03-04T06:45:01.869Z,101536.72
2023-03-04T06:47:28.398Z,101524.94
2023-03-04T06:49:54.867Z,101532.84
2023-03-04T06:52:21.317Z,101524.22
2023-03-04T06:54:47.791Z,101535.00
2023-03-04T06:57:14.318Z,101529.78
2023-03-04T06:59:40.834Z,101538.03
2023-03-04T07:02:11.319Z,101538.16
2023-03-04T07:04:38.112Z,101526.56
2023-03-04T07:07:04.636Z,101531.50
2023-03-04T07:09:31.153Z,101527.28
2023-03-04T07:11:57.668Z,101534.09
2023-03-04T07:14:24.385Z,101536.56
2023-03-04T07:16:50.892Z,101541.44
2023-03-04T07:19:17.869Z,101548.50
2023-03-04T07:21:44.428Z,101541.44
2023-03-04T07:24:10.924Z,101544.03
2023-03-04T07:26:38.329Z,101549.78
2023-03-04T07:29:05.262Z,101561.25
2023-03-04T07:31:33.731Z,101555.50
2023-03-04T07:34:02.424Z,101549.81
2023-03-04T07:36:29.086Z,101559.44
2023-03-04T07:38:55.703Z,101567.84
2023-03-04T07:41:24.116Z,101565.88
2023-03-04T07:43:51.075Z,101557.91
2023-03-04T07:46:18.604Z,101572.69
2023-03-04T07:48:45.098Z,101572.03
2023-03-04T07:51:14.312Z,101573.28
2023-03-04T07:53:42.483Z,101564.28
2023-03-04T07:56:12.256Z,101580.50
2023-03-04T07:58:38.747Z,101575.19
2023-03-04T08:01:10.625Z,101583.34
2023-03-04T08:03:37.108Z,101582.63
2023-03-04T08:06:12.562Z,101582.44
2023-03-04T08:08:39.261Z,101586.97
2023-03-04T08:11:12.450Z,101583.28
2023-03-04T08:13:38.923Z,101578.09
2023-03-04T08:16:06.080Z,101577.88
2023-03-04T08:18:32.770Z,101584.53
2023-03-04T08:20:59.690Z,101592.19
2023-03-04T08:23:27.029Z,101586.59
2023-03-04T08:25:53.528Z,101589.31
2023-03-04T08:28:20.123Z,101585.13
2023-03-04T08:30:52.775Z,101584.06
2023-03-04T08:33:19.269Z,101580.72
2023-03-04T08:35:45.772Z,101584.13
2023-03-04T08:38:12.255Z,101583.19
2023-03-04T08:40:38.731Z,101593.53
2023-03-04T08:43:07.173Z,101598.00
2023-03-04T08:45:34.798Z,101596.31
2023-03-04T08:48:01.253Z,101590.88
2023-03-04T08:50:28.005Z,101595.25
2023-03-04T08:52:54.991Z,101582.38
2023-03-04T08:55:21.793Z,101588.28
2023-03-04T08:57:48.238Z,101584.16
2023-03-04T09:00:15.149Z,101583.09
2023-03-04T09:02:41.607Z,101600.97
2023-03-04T09:05:08.795Z,101599.59
2023-03-04T09:07:36.017Z,101581.31
2023-03-04T09:10:02.623Z,101596.72
2023-03-04T09:12:29.114Z,101588.75
2023-03-04T09:15:09.819Z,101588.41
2023-03-04T09:17:40.406Z,101586.50
2023-03-04T09:20:11.432Z,101587.19
2023-03-04T09:22:38.989Z,101595.09
2023-03-04T09:25:08.920Z,101589.38
2023-03-04T09:27:38.012Z,101603.97
2023-03-04T09:30:05.206Z,101590.66
2023-03-04T09:32:31.730Z,101585.50
2023-03-04T09:34:58.255Z,101570.59
2023-03-04T09:37:24.740Z,101565.41
2023-03-04T09:39:51.330Z,101585.44
2023-03-04T09:42:47.772Z,101586.97
2023-03-04T09:45:19.014Z,101571.28
2023-03-04T09:47:46.506Z,101576.66
2023-03-04T09:50:13.603Z,101577.22
2023-03-04T09:53:07.637Z,101574.63
2023-03-04T09:55:38.332Z,101585.97
2023-03-04T09:58:17.016Z,101584.16
2023-03-04T10:01:00.612Z,101577.31
2023-03-04T10:04:12.311Z,101581.44
2023-03-04T10:06:39.835Z,101568.44
2023-03-04T10:09:13.096Z,101567.66
2023-03-04T10:11:46.733Z,101578.41
2023-03-04T10:14:16.198Z,101570.72
2023-03-04T10:16:45.849Z,101571.38
2023-03-04T10:19:15.485Z,101563.41
2023-03-04T10:21:44.728Z,101567.31
2023-03-04T10:24:22.681Z,101574.81
2023-03-04T10:26:52.862Z,101576.59
2023-03-04T10:29:22.071Z,101571.91
2023-03-04T10:31:49.750Z,101567.94
2023-03-04T10:34:17.794Z,101561.00
2023-03-04T10:36:48.507Z,101573.38
2023-03-04T10:39:32.891Z,101575.38
2023-03-04T10:42:01.902Z,101579.50
2023-03-04T10:44:29.447Z,101582.38
2023-03-04T10:46:58.146Z,101570.19
2023-03-04T10:49:25.678Z,101582.16
2023-03-04T10:52:26.987Z,101581.81
2023-03-04T10:54:58.900Z,101579.75
2023-03-04T10:57:42.261Z,101586.09
2023-03-04T11:00:17.910Z,101589.72
2023-03-04T11:02:46.010Z,101582.81
2023-03-04T11:05:12.401Z,101581.22
2023-03-04T11:07:57.524Z,101584.91
2023-03-04T11:10:31.710Z,101579.69
2023-03-04T11:13:18.406Z,101591.00
2023-03-04T11:15:58.033Z,101590.41
2023-03-04T11:18:34.150Z,101591.25
2023-03-04T11:21:03.956Z,101596.69
2023-03-04T11:24:13.381Z,101592.53
2023-03-04T11:26:53.151Z,101594.47
2023-03-04T11:30:02.015Z,101602.66
2023-03-04T11:32:34.185Z,101602.16
2023-03-04T11:35:32.482Z,101603.13
2023-03-04T11:38:21.784Z,101594.91
2023-03-04T11:40:54.674Z,101600.16
2023-03-04T11:43:37.980Z,101592.75
2023-03-04T11:46:42.507Z,101593.03
2023-03-04T11:49:33.786Z,101586.25
2023-03-04T11:52:18.506Z,101593.38
2023-03-04T11:55:09.460Z,101585.34
2023-03-04T11:57:52.228Z,101585.97
2023-03-04T12:00:41.117Z,101571.84
2023-03-04T12:03:26.362Z,101577.16
2023-03-04T12:06:03.287Z,101579.22
2023-03-04T12:08:39.069Z,101575.66
2023-03-04T12:11:20.648Z,101568.53
2023-03-04T12:14:14.860Z,101564.09
2023-03-04T12:17:02.656Z,101559.41
2023-03-04T12:19:59.800Z,101553.97
2023-03-04T12:22:41.427Z,101553.81
2023-03-04T12:25:29.895Z,101543.47
2023-03-04T12:28:28.982Z,101544.66
2023-03-04T12:31:10.057Z,101554.22
2023-03-04T12:33:50.709Z,101541.34
2023-03-04T12:36:23.305Z,101553.13
2023-03-04T12:39:00.203Z,101540.13
2023-03-04T12:41:29.555Z,101530.25
2023-03-04T12:44:20.488Z,101531.91
2023-03-04T12:47:11.632Z,101529.69
2023-03-04T12:50:04.577Z,101521.50
2023-03-04T12:52:40.899Z,101519.13
2023-03-04T12:55:14.527Z,101524.44
2023-03-04T12:57:41.120Z,101528.47
2023-03-04T13:00:31.099Z,101522.81
2023-03-04T13:03:26.284Z,101529.41
2023-03-04T13:06:20.995Z,101513.53
2023-03-04T13:08:54.863Z,101517.22
2023-03-04T13:11:28.180Z,101529.81
2023-03-04T13:14:18.352Z,101516.31
2023-03-04T13:16:48.972Z,101517.59
2023-03-04T13:19:45.040Z,101511.13
2023-03-04T13:22:38.942Z,101510.44
2023-03-04T13:25:30.857Z,101522.06
2023-03-04T13:28:00.561Z,101523.16
2023-03-04T13:30:34.697Z,101520.22
2023-03-04T13:33:11.065Z,101515.06
2023-03-04T13:35:47.265Z,101511.03
2023-03-04T13:38:24.607Z,101522.59
2023-03-04T13:41:00.622Z,101512.75
2023-03-04T13:43:36.777Z,101517.31
2023-03-04T13:46:24.113Z,101520.47
2023-03-04T13:48:50.788Z,101516.69
2023-03-04T13:51:41.571Z,101514.53
2023-03-04T13:54:14.932Z,101503.59
2023-03-04T13:56:42.836Z,101510.75
2023-03-04T13:59:09.318Z,101506.31
2023-03-04T14:01:43.252Z,101516.41
2023-03-04T14:04:29.632Z,101506.75
2023-03-04T14:07:01.218Z,101505.56
2023-03-04T14:09:30.713Z,101506.47
2023-03-04T14:12:03.804Z,101502.16
2023-03-04T14:14:37.540Z,101508.44
2023-03-04T14:17:05.582Z,101516.56
2023-03-04T14:19:43.917Z,101509.75
2023-03-04T14:22:31.388Z,101506.44
2023-03-04T14:25:03.773Z,101504.63
2023-03-04T14:27:33.723Z,101505.47
2023-03-04T14:30:02.010Z,101500.56
2023-03-04T14:32:29.348Z,101499.25
2023-03-04T14:35:07.763Z,101494.84
2023-03-04T14:38:04.417Z,101508.09
2023-03-04T14:40:39.063Z,101499.13
2023-03-04T14:43:10.987Z,101501.59
2023-03-04T14:45:37.652Z,101493.72
2023-03-04T14:48:07.920Z,101485.09
2023-03-04T14:50:36.174Z,101493.72
2023-03-04T14:53:07.143Z,101482.63
2023-03-04T14:55:33.830Z,101483.69
2023-03-04T14:58:07.773Z,101488.34
2023-03-04T15:00:42.053Z,101476.19
2023-03-04T15:03:22.032Z,101482.06
2023-03-04T15:05:49.225Z,101481.56
2023-03-04T15:08:37.492Z,101486.59
2023-03-04T15:11:06.101Z,101476.56
2023-03-04T15:13:46.018Z,101472.59
2023-03-04T15:16:14.726Z,101473.41
2023-03-04T15:18:57.460Z,101468.84
2023-03-04T15:21:31.740Z,101475.16
2023-03-04T15:23:58.258Z,101470.75
2023-03-04T15:26:24.846Z,101474.63
2023-03-04T15:28:51.421Z,101477.03
2023-03-04T15:31:21.104Z,101471.25
2023-03-04T15:33:47.855Z,101468.13
2023-03-04T15:36:16.845Z,101476.81
2023-03-04T15:38:49.777Z,101470.84
2023-03-04T15:41:23.520Z,101477.28
2023-03-04T15:43:50.633Z,101478.69
2023-03-04T15:46:18.136Z,101471.66
2023-03-04T15:48:45.687Z,101474.25
2023-03-04T15:51:21.524Z,101465.44
2023-03-04T15:53:52.852Z,101462.06
2023-03-04T15:56:21.490Z,101467.72
2023-03-04T15:59:01.744Z,101461.75
2023-03-04T16:01:28.277Z,101466.38
2023-03-04T16:03:54.831Z,101469.53
2023-03-04T16:06:23.564Z,101468.56
2023-03-04T16:08:50.682Z,101467.56
2023-03-04T16:11:19.391Z,101472.66
2023-03-04T16:13:45.879Z,101457.22
2023-03-04T16:16:13.400Z,101469.19
2023-03-04T16:18:40.661Z,101463.56
2023-03-04T16:21:08.388Z,101458.78
2023-03-04T16:23:39.618Z,101464.75
2023-03-04T16:26:12.455Z,101459.78
2023-03-04T16:28:38.916Z,101457.75
2023-03-04T16:31:06.577Z,101462.81
2023-03-04T16:33:33.060Z,101453.81
2023-03-04T16:35:59.678Z,101456.03
2023-03-04T16:38:29.843Z,101457.44
2023-03-04T16:40:57.041Z,101458.19
2023-03-04T16:43:24.318Z,101461.66
2023-03-04T16:45:50.808Z,101450.22
2023-03-04T16:48:17.350Z,101458.91
2023-03-04T16:50:44.572Z,101459.72
2023-03-04T16:53:24.896Z,101459.72
2023-03-04T16:55:51.678Z,101463.41
2023-03-04T16:58:18.178Z,101460.75
2023-03-04T17:00:44.701Z,101459.22
2023-03-04T17:03:11.515Z,101457.75
2023-03-04T17:05:38.108Z,101456.81
2023-03-04T17:08:04.654Z,101451.56
2023-03-04T17:10:31.127Z,101457.44
2023-03-04T17:12:57.586Z,101453.91
2023-03-04T17:15:24.194Z,101460.59
2023-03-04T17:17:52.637Z,101461.66
2023-03-04T17:20:19.854Z,101456.19
2023-03-04T17:22:46.342Z,101462.75
2023-03-04T17:25:14.120Z,101470.13
2023-03-04T17:27:41.132Z,101467.66
2023-03-04T17:30:11.377Z,101464.13
2023-03-04T17:32:39.517Z,101467.66
2023-03-04T17:35:08.086Z,101465.53
2023-03-04T17:37:35.558Z,101473.38
2023-03-04T17:40:08.601Z,101475.59
2023-03-04T17:42:35.178Z,101465.72
2023-03-04T17:45:01.681Z,101471.91
2023-03-04T17:47:28.134Z,101471.72
2023-03-04T17:49:54.623Z,101474.59
2023-03-04T17:52:21.525Z,101474.19
2023-03-04T17:54:48.081Z,101475.88
2023-03-04T17:57:14.581Z,101482.13
2023-03-04T17:59:41.130Z,101479.25
2023-03-04T18:02:08.034Z,101486.31
2023-03-04T18:04:35.297Z,101476.88
2023-03-04T18:07:01.790Z,101481.69
2023-03-04T18:09:28.274Z,101488.19
2023-03-04T18:11:54.765Z,101478.88
2023-03-04T18:14:21.285Z,101494.25
2023-03-04T18:16:47.799Z,101497.47
2023-03-04T18:19:15.837Z,101488.97
2023-03-04T18:21:44.236Z,101484.28
2023-03-04T18:24:10.752Z,101484.50
2023-03-04T18:26:37.281Z,101490.72
2023-03-04T18:29:03.759Z,101480.66
2023-03-04T18:31:33.366Z,101488.34
2023-03-04T18:34:04.217Z,101494.25
2023-03-04T18:36:30.943Z,101488.16
2023-03-04T18:38:59.402Z,101480.59
2023-03-04T18:41:27.801Z,101485.09
2023-03-04T18:43:54.877Z,101481.19
2023-03-04T18:46:52.682Z,101478.47
2023-03-04T18:49:20.443Z,101485.13
2023-03-04T18:51:46.986Z,101483.31
2023-03-04T18:54:13.483Z,101489.44
2023-03-04T18:56:54.875Z,101490.28
2023-03-04T18:59:25.025Z,101486.56
2023-03-04T19:01:53.302Z,101475.94
2023-03-04T19:04:22.398Z,101486.88
2023-03-04T19:06:49.018Z,101484.66
2023-03-04T19:09:15.541Z,101487.47
2023-03-04T19:11:42.031Z,101487.47
2023-03-04T19:14:08.490Z,101492.97
2023-03-04T19:16:35.981Z,101486.09
2023-03-04T19:19:02.527Z,101483.69
2023-03-04T19:21:29.054Z,101488.38
2023-03-04T19:23:55.564Z,101489.81
2023-03-04T19:26:22.059Z,101485.38
2023-03-04T19:28:49.503Z,101497.44
2023-03-04T19:31:15.964Z,101489.47
2023-03-04T19:33:42.435Z,101492.47
2023-03-04T19:36:09.768Z,101491.91
2023-03-04T19:38:36.682Z,101498.59
2023-03-04T19:41:14.976Z,101496.50
2023-03-04T19:43:41.441Z,101491.53
2023-03-04T19:46:09.502Z,101494.34
2023-03-04T19:48:37.234Z,101497.72
2023-03-04T19:51:05.021Z,101503.03
2023-03-04T19:53:34.616Z,101495.78
2023-03-04T19:56:01.345Z,101495.53
2023-03-04T19:58:27.825Z,101501.75
2023-03-04T20:00:54.952Z,101497.94
2023-03-04T20:03:22.129Z,101501.53
2023-03-04T20:05:48.652Z,101505.97
2023-03-04T20:08:15.159Z,101498.44
2023-03-04T20:10:41.655Z,101498.19
2023-03-04T20:13:08.975Z,101496.31
2023-03-04T20:15:35.815Z,101477.44
2023-03-04T20:18:02.433Z,101487.25
2023-03-04T20:20:29.317Z,101480.00
2023-03-04T20:22:56.470Z,101481.78
2023-03-04T20:25:23.685Z,101473.38
2023-03-04T20:27:50.390Z,101474.91
2023-03-04T20:30:17.948Z,101494.09
2023-03-04T20:32:45.014Z,101480.16
2023-03-04T20:35:14.989Z,101483.13
2023-03-04T20:37:42.315Z,101482.38
2023-03-04T20:40:11.011Z,101479.88
2023-03-04T20:42:37.511Z,101479.00
2023-03-04T20:45:04.661Z,101470.84
2023-03-04T20:47:31.290Z,101482.63
2023-03-04T20:49:57.872Z,101470.34
2023-03-04T20:52:24.357Z,101474.38
2023-03-04T20:54:50.802Z,101468.13
2023-03-04T20:57:17.276Z,101474.53
2023-03-04T20:59:43.865Z,101477.94
2023-03-04T21:02:13.862Z,101462.78
2023-03-04T21:04:40.475Z,101464.84
2023-03-04T21:07:06.941Z,101456.09
2023-03-04T21:09:33.453Z,101465.44
2023-03-04T21:12:01.074Z,101460.72
2023-03-04T21:14:30.061Z,101452.63
2023-03-04T21:16:59.387Z,101442.53
2023-03-04T21:19:28.214Z,101450.63
2023-03-04T21:21:55.613Z,101455.13
2023-03-04T21:24:24.809Z,101443.56
2023-03-04T21:26:51.504Z,101449.88
2023-03-04T21:29:20.145Z,101436.84
2023-03-04T21:31:49.407Z,101440.09
2023-03-04T21:34:22.117Z,101432.41
2023-03-04T21:36:49.004Z,101434.34
2023-03-04T21:39:17.601Z,101429.41
2023-03-04T21:41:44.443Z,101430.47
2023-03-04T21:44:18.191Z,101425.66
2023-03-04T21:46:56.408Z,101425.31
2023-03-04T21:49:22.898Z,101435.63
2023-03-04T21:51:49.377Z,101427.06
2023-03-04T21:54:16.315Z,101426.94
2023-03-04T21:56:42.919Z,101424.31
2023-03-04T21:59:13.477Z,101424.28
2023-03-04T22:01:41.243Z,101417.59
2023-03-04T22:04:08.255Z,101402.25
2023-03-04T22:06:35.249Z,101414.28
2023-03-04T22:09:03.682Z,101415.13
2023-03-04T22:11:30.688Z,101418.13
2023-03-04T22:13:59.976Z,101414.38
2023-03-04T22:16:26.925Z,101405.41
2023-03-04T22:18:53.617Z,101410.34
2023-03-04T22:21:21.505Z,101408.06
2023-03-04T22:23:48.353Z,101407.41
2023-03-04T22:26:15.761Z,101401.19
2023-03-04T22:28:42.395Z,101411.00
2023-03-04T22:31:31.339Z,101403.09
2023-03-04T22:34:05.805Z,101401.22
2023-03-04T22:36:35.436Z,101413.84
2023-03-04T22:39:04.792Z,101401.69
2023-03-04T22:41:32.730Z,101387.88
2023-03-04T22:44:00.043Z,101388.63
2023-03-04T22:46:30.803Z,101391.41
2023-03-04T22:49:01.710Z,101391.66
2023-03-04T22:51:28.941Z,101381.09
2023-03-04T22:54:00.659Z,101380.28
2023-03-04T22:56:27.751Z,101380.19
2023-03-04T22:58:57.119Z,101379.09
2023-03-04T23:01:24.062Z,101379.56
2023-03-04T23:03:52.554Z,101377.03
2023-03-04T23:06:22.421Z,101370.78
2023-03-04T23:08:51.426Z,101369.75
2023-03-04T23:11:27.122Z,101377.88
2023-03-04T23:13:57.634Z,101370.00
2023-03-04T23:16:28.918Z,101365.09
2023-03-04T23:18:57.126Z,101357.44
2023-03-04T23:21:25.716Z,101354.59
2023-03-04T23:23:52.741Z,101348.94
2023-03-04T23:26:28.429Z,101350.97
2023-03-04T23:28:57.200Z,101340.41
2023-03-04T23:31:25.601Z,101338.34
2023-03-04T23:33:57.704Z,101348.53
2023-03-04T23:36:27.197Z,101347.34
2023-03-04T23:38:54.860Z,101335.94
2023-03-04T23:41:24.448Z,101341.88
2023-03-04T23:43:52.890Z,101341.44
2023-03-04T23:46:19.633Z,101341.72
2023-03-04T23:48:46.887Z,101330.63
2023-03-04T23:51:19.074Z,101326.50
2023-03-04T23:53:46.177Z,101335.13
2023-03-04T23:56:24.323Z,101338.19
2023-03-04T23:58:51.109Z,101339.00
